Time;durP1;ratioP1;P1;durP2;ratioP2;P2;SDS_P1;SDS_P2;PMS_P1;PMS_P2;Temp;Humidity;BMP_temperature;BMP_pressure;BME280_temperature;BME280_humidity;BME280_pressure;Samples;Min_cycle;Max_cycle;Signal;HPM_P1;HPM_P2
2023/11/20 00:01:21;;;;;;;;;;;;;;;16.87;nan;100541.97;5037150;28;20339;-86
2023/11/20 00:03:46;;;;;;;;;;;;;;;16.84;nan;100535.25;5041508;28;21613;-86
2023/11/20 00:06:13;;;;;;;;;;;;;;;16.84;nan;100539.88;5041617;28;20381;-85
2023/11/20 00:08:39;;;;;;;;;;;;;;;16.78;nan;100531.03;5037826;28;20530;-86
2023/11/20 00:11:04;;;;;;;;;;;;;;;16.73;nan;100538.44;5023293;28;19960;-85
2023/11/20 00:13:30;;;;;;;;;;;;;;;16.72;nan;100536.81;5035280;28;19963;-87
2023/11/20 00:15:55;;;;;;;;;;;;;;;16.69;nan;100540.09;5036989;28;19924;-86
2023/11/20 00:18:20;;;;;;;;;;;;;;;16.67;nan;100543.09;5042161;28;19965;-86
2023/11/20 00:20:45;;;;;;;;;;;;;;;16.67;nan;100539.59;5038749;28;20361;-85
2023/11/20 00:23:11;;;;;;;;;;;;;;;16.67;nan;100540.38;5038184;28;19924;-85
2023/11/20 00:25:36;;;;;;;;;;;;;;;16.62;nan;100554.78;5036179;28;19956;-85
2023/11/20 00:28:02;;;;;;;;;;;;;;;16.61;nan;100547.75;5039081;28;20460;-86
2023/11/20 00:30:27;;;;;;;;;;;;;;;16.58;nan;100547.53;5037256;28;20500;-86
2023/11/20 00:32:53;;;;;;;;;;;;;;;16.56;nan;100547.03;5037551;28;20094;-86
2023/11/20 00:35:18;;;;;;;;;;;;;;;16.52;nan;100549.53;5041125;28;19931;-86
2023/11/20 00:37:46;;;;;;;;;;;;;;;16.53;nan;100551.13;5043677;28;19962;-86
2023/11/20 00:40:11;;;;;;;;;;;;;;;16.55;nan;100554.34;5047674;28;20009;-86
2023/11/20 00:42:37;;;;;;;;;;;;;;;16.53;nan;100558.44;5042788;28;20420;-86
2023/11/20 00:45:02;;;;;;;;;;;;;;;16.51;nan;100550.59;5043529;28;20377;-86
2023/11/20 00:47:28;;;;;;;;;;;;;;;16.49;nan;100550.09;5043574;28;19940;-85
2023/11/20 00:49:53;;;;;;;;;;;;;;;16.49;nan;100551.97;5039291;28;20309;-86
2023/11/20 00:52:18;;;;;;;;;;;;;;;16.46;nan;100550.66;5042605;28;19920;-85
2023/11/20 00:54:44;;;;;;;;;;;;;;;16.45;nan;100543.66;5043652;28;20312;-85
2023/11/20 00:57:09;;;;;;;;;;;;;;;16.43;nan;100542.34;5043240;28;19917;-86
2023/11/20 00:59:34;;;;;;;;;;;;;;;16.40;nan;100543.72;5042666;28;19917;-85
2023/11/20 01:01:59;;;;;;;;;;;;;;;16.38;nan;100539.72;5043341;28;19928;-86
2023/11/20 01:04:25;;;;;;;;;;;;;;;16.32;nan;100537.06;5044710;28;19925;-85
2023/11/20 01:06:50;;;;;;;;;;;;;;;16.30;nan;100541.97;5042007;28;19917;-86
2023/11/20 01:09:16;;;;;;;;;;;;;;;16.28;nan;100540.66;5044183;28;19921;-85
2023/11/20 01:11:42;;;;;;;;;;;;;;;16.27;nan;100539.84;5044275;28;19918;-86
2023/11/20 01:14:08;;;;;;;;;;;;;;;16.27;nan;100536.34;5043668;28;19917;-85
2023/11/20 01:16:33;;;;;;;;;;;;;;;16.29;nan;100547.66;5040868;28;19924;-86
2023/11/20 01:18:58;;;;;;;;;;;;;;;16.28;nan;100546.06;5040298;28;19983;-86
2023/11/20 01:21:23;;;;;;;;;;;;;;;16.27;nan;100539.03;5043433;28;19956;-86
2023/11/20 01:23:49;;;;;;;;;;;;;;;16.27;nan;100541.75;5038437;28;20304;-86
2023/11/20 01:26:14;;;;;;;;;;;;;;;16.27;nan;100547.16;5042818;28;19916;-86
2023/11/20 01:28:39;;;;;;;;;;;;;;;16.29;nan;100542.25;5041271;28;19921;-86
2023/11/20 01:31:05;;;;;;;;;;;;;;;16.29;nan;100543.06;5039669;28;20642;-85
2023/11/20 01:33:30;;;;;;;;;;;;;;;16.30;nan;100551.97;5044034;28;20769;-85
2023/11/20 01:35:55;;;;;;;;;;;;;;;16.29;nan;100547.66;5041277;28;19917;-85
2023/11/20 01:38:21;;;;;;;;;;;;;;;16.26;nan;100548.25;5042204;28;19917;-86
2023/11/20 01:40:53;;;;;;;;;;;;;;;16.25;nan;100542.03;5042496;28;20388;-85
2023/11/20 01:43:18;;;;;;;;;;;;;;;16.25;nan;100541.22;5040650;28;20034;-86
2023/11/20 01:45:44;;;;;;;;;;;;;;;16.25;nan;100535.81;5038412;28;19921;-85
2023/11/20 01:48:09;;;;;;;;;;;;;;;16.25;nan;100543.94;5041689;28;19925;-85
2023/11/20 01:50:35;;;;;;;;;;;;;;;16.28;nan;100548.75;5042166;28;20349;-85
2023/11/20 01:53:01;;;;;;;;;;;;;;;16.26;nan;100546.34;5040662;28;20296;-87
2023/11/20 01:55:26;;;;;;;;;;;;;;;16.26;nan;100549.06;5041072;28;20316;-86
2023/11/20 01:57:52;;;;;;;;;;;;;;;16.26;nan;100550.94;5041140;28;20455;-86
2023/11/20 02:00:18;;;;;;;;;;;;;;;16.27;nan;100547.94;5045510;28;19928;-86
2023/11/20 02:02:44;;;;;;;;;;;;;;;16.31;nan;100553.56;5041663;28;19931;-85
2023/11/20 02:05:09;;;;;;;;;;;;;;;16.28;nan;100549.56;5040792;28;19928;-86
2023/11/20 02:07:35;;;;;;;;;;;;;;;16.24;nan;100545.03;5043029;28;19917;-85
2023/11/20 02:10:01;;;;;;;;;;;;;;;16.20;nan;100547.50;5040596;28;19920;-85
2023/11/20 02:12:26;;;;;;;;;;;;;;;16.18;nan;100544.31;5039944;28;19978;-86
2023/11/20 02:14:52;;;;;;;;;;;;;;;16.17;nan;100548.09;5041421;28;20488;-86
2023/11/20 02:17:17;;;;;;;;;;;;;;;16.20;nan;100546.72;5043639;28;19925;-86
2023/11/20 02:19:49;;;;;;;;;;;;;;;16.21;nan;100535.59;5043237;28;19928;-86
2023/11/20 02:22:15;;;;;;;;;;;;;;;16.26;nan;100543.63;5042016;28;19924;-86
2023/11/20 02:24:42;;;;;;;;;;;;;;;16.28;nan;100546.84;5035902;28;20023;-85
2023/11/20 02:27:24;;;;;;;;;;;;;;;16.28;nan;100537.94;5039391;28;19921;-85
2023/11/20 02:29:53;;;;;;;;;;;;;;;16.24;nan;100540.44;5043109;28;19936;-85
2023/11/20 02:32:19;;;;;;;;;;;;;;;16.23;nan;100540.72;5042200;28;19926;-86
2023/11/20 02:34:45;;;;;;;;;;;;;;;16.19;nan;100539.69;5045567;28;19939;-86
2023/11/20 02:37:10;;;;;;;;;;;;;;;16.13;nan;100533.53;5047831;28;20428;-85
2023/11/20 02:39:37;;;;;;;;;;;;;;;16.13;nan;100532.72;5038105;28;19920;-86
2023/11/20 02:42:03;;;;;;;;;;;;;;;16.14;nan;100535.16;5043040;28;19925;-86
2023/11/20 02:44:28;;;;;;;;;;;;;;;16.13;nan;100530.84;5042082;28;19932;-86
2023/11/20 02:46:53;;;;;;;;;;;;;;;16.09;nan;100529.00;5039928;28;19970;-86
2023/11/20 02:49:19;;;;;;;;;;;;;;;16.08;nan;100533.59;5043043;28;19921;-85
2023/11/20 02:51:44;;;;;;;;;;;;;;;16.09;nan;100529.00;5041485;28;19944;-86
2023/11/20 02:54:09;;;;;;;;;;;;;;;16.11;nan;100526.81;5041917;28;20594;-84
2023/11/20 02:56:34;;;;;;;;;;;;;;;16.12;nan;100518.41;5039614;28;19916;-85
2023/11/20 02:59:01;;;;;;;;;;;;;;;16.13;nan;100519.22;5039009;28;20719;-86
2023/11/20 03:01:27;;;;;;;;;;;;;;;16.12;nan;100518.41;5040852;28;20000;-86
2023/11/20 03:03:53;;;;;;;;;;;;;;;16.15;nan;100509.72;5040683;28;19921;-85
2023/11/20 03:06:18;;;;;;;;;;;;;;;16.11;nan;100510.59;5041322;28;19927;-86
2023/11/20 03:08:45;;;;;;;;;;;;;;;16.10;nan;100509.00;5037298;28;19917;-86
2023/11/20 03:11:10;;;;;;;;;;;;;;;16.10;nan;100511.69;5042139;28;19960;-86
2023/11/20 03:13:37;;;;;;;;;;;;;;;16.06;nan;100507.97;5042045;28;20018;-86
2023/11/20 03:16:05;;;;;;;;;;;;;;;16.06;nan;100516.06;5039928;28;19936;-86
2023/11/20 03:18:31;;;;;;;;;;;;;;;16.04;nan;100505.56;5038989;28;19956;-86
2023/11/20 03:20:56;;;;;;;;;;;;;;;16.06;nan;100506.06;5035904;28;20095;-86
2023/11/20 03:23:21;;;;;;;;;;;;;;;16.06;nan;100508.78;5040635;28;19959;-86
2023/11/20 03:25:47;;;;;;;;;;;;;;;16.08;nan;100509.28;5038747;28;20423;-86
2023/11/20 03:28:12;;;;;;;;;;;;;;;16.11;nan;100499.78;5038673;28;19921;-85
2023/11/20 03:30:37;;;;;;;;;;;;;;;16.11;nan;100500.59;5039576;28;19932;-85
2023/11/20 03:33:02;;;;;;;;;;;;;;;16.09;nan;100502.78;5036615;28;19923;-86
2023/11/20 03:35:28;;;;;;;;;;;;;;;16.08;nan;100503.06;5037706;28;19916;-86
2023/11/20 03:37:53;;;;;;;;;;;;;;;16.09;nan;100499.28;5036490;28;19917;-86
2023/11/20 03:40:19;;;;;;;;;;;;;;;16.10;nan;100492.78;5037848;28;19927;-86
2023/11/20 03:42:44;;;;;;;;;;;;;;;16.10;nan;100492.78;5040234;28;20007;-86
2023/11/20 03:45:10;;;;;;;;;;;;;;;16.13;nan;100508.41;5038694;28;20312;-86
2023/11/20 03:47:35;;;;;;;;;;;;;;;16.17;nan;100495.94;5033783;28;20007;-86
2023/11/20 03:50:01;;;;;;;;;;;;;;;16.22;nan;100496.66;5038018;28;19921;-87
2023/11/20 03:52:27;;;;;;;;;;;;;;;16.18;nan;100498.34;5040906;28;19921;-86
2023/11/20 03:54:52;;;;;;;;;;;;;;;16.14;nan;100491.09;5036286;28;20768;-87
2023/11/20 03:57:17;;;;;;;;;;;;;;;16.15;nan;100495.41;5038352;28;19924;-86
2023/11/20 03:59:43;;;;;;;;;;;;;;;16.19;nan;100504.56;5039947;28;19932;-87
2023/11/20 04:02:08;;;;;;;;;;;;;;;16.20;nan;100498.06;5039193;28;19917;-86
2023/11/20 04:04:33;;;;;;;;;;;;;;;16.22;nan;100495.88;5018213;28;19921;-86
2023/11/20 04:06:59;;;;;;;;;;;;;;;16.22;nan;100493.16;5034936;28;20022;-86
2023/11/20 04:09:24;;;;;;;;;;;;;;;16.23;nan;100487.47;5037667;28;19916;-86
2023/11/20 04:11:50;;;;;;;;;;;;;;;16.26;nan;100491.47;5038305;28;19964;-86
2023/11/20 04:14:15;;;;;;;;;;;;;;;16.25;nan;100489.88;5036406;28;20007;-86
2023/11/20 04:16:40;;;;;;;;;;;;;;;16.22;nan;100485.84;5043028;28;19963;-86
2023/11/20 04:19:05;;;;;;;;;;;;;;;16.17;nan;100477.03;5034106;28;19923;-86
2023/11/20 04:21:31;;;;;;;;;;;;;;;16.14;nan;100472.19;5041016;28;19925;-86
2023/11/20 04:23:57;;;;;;;;;;;;;;;16.07;nan;100471.75;5040051;28;20003;-87
2023/11/20 04:26:22;;;;;;;;;;;;;;;16.03;nan;100471.53;5041464;28;20567;-86
2023/11/20 04:28:48;;;;;;;;;;;;;;;15.97;nan;100470.78;5040453;28;20412;-86
2023/11/20 04:31:13;;;;;;;;;;;;;;;15.97;nan;100462.66;5040047;28;20416;-86
2023/11/20 04:33:42;;;;;;;;;;;;;;;16.01;nan;100474.53;5042070;28;19921;-86
2023/11/20 04:36:08;;;;;;;;;;;;;;;16.01;nan;100463.72;5038616;28;19923;-87
2023/11/20 04:38:35;;;;;;;;;;;;;;;16.01;nan;100462.91;5037755;28;19963;-87
2023/11/20 04:41:01;;;;;;;;;;;;;;;16.00;nan;100464.81;5038542;28;20410;-86
2023/11/20 04:43:26;;;;;;;;;;;;;;;16.01;nan;100460.22;5037735;28;19925;-87
2023/11/20 04:45:51;;;;;;;;;;;;;;;16.00;nan;100462.09;5039126;28;19921;-86
2023/11/20 04:48:16;;;;;;;;;;;;;;;16.00;nan;100462.09;5041682;28;19920;-87
2023/11/20 04:50:42;;;;;;;;;;;;;;;16.00;nan;100456.69;5041869;28;19975;-86
2023/11/20 04:53:08;;;;;;;;;;;;;;;15.99;nan;100452.41;5040926;28;20448;-85
2023/11/20 04:55:33;;;;;;;;;;;;;;;16.03;nan;100452.63;5039272;28;20003;-86
2023/11/20 04:57:58;;;;;;;;;;;;;;;16.09;nan;100448.72;5039635;28;19955;-85
2023/11/20 05:00:24;;;;;;;;;;;;;;;16.13;nan;100443.53;5040466;28;20011;-86
2023/11/20 05:02:49;;;;;;;;;;;;;;;16.18;nan;100446.19;5037896;28;20310;-85
2023/11/20 05:05:14;;;;;;;;;;;;;;;16.21;nan;100451.00;5038612;28;19988;-85
2023/11/20 05:07:40;;;;;;;;;;;;;;;16.24;nan;100455.81;5044568;28;19963;-86
2023/11/20 05:10:05;;;;;;;;;;;;;;;16.28;nan;100456.84;5036907;28;20525;-86
2023/11/20 05:12:31;;;;;;;;;;;;;;;16.30;nan;100454.66;5038903;28;19925;-86
2023/11/20 05:14:56;;;;;;;;;;;;;;;16.32;nan;100453.25;5040547;28;19971;-87
2023/11/20 05:17:21;;;;;;;;;;;;;;;16.35;nan;100457.28;5038372;28;19916;-86
2023/11/20 05:19:47;;;;;;;;;;;;;;;16.37;nan;100448.88;5043423;28;20016;-87
2023/11/20 05:22:12;;;;;;;;;;;;;;;16.37;nan;100448.88;5038995;28;20370;-86
2023/11/20 05:24:41;;;;;;;;;;;;;;;16.39;nan;100444.78;5043259;28;19925;-87
2023/11/20 05:27:08;;;;;;;;;;;;;;;16.40;nan;100449.09;5040252;28;19979;-86
2023/11/20 05:29:33;;;;;;;;;;;;;;;16.38;nan;100454.00;5044805;28;20007;-86
2023/11/20 05:31:59;;;;;;;;;;;;;;;16.41;nan;100460.72;5042415;28;20460;-86
2023/11/20 05:34:24;;;;;;;;;;;;;;;16.42;nan;100456.91;5043885;28;19917;-86
2023/11/20 05:36:50;;;;;;;;;;;;;;;16.44;nan;100458.22;5043759;28;19917;-85
2023/11/20 05:39:18;;;;;;;;;;;;;;;16.46;nan;100452.53;5044951;28;19920;-86
2023/11/20 05:41:43;;;;;;;;;;;;;;;16.45;nan;100457.13;5040075;28;19927;-86
2023/11/20 05:44:09;;;;;;;;;;;;;;;16.44;nan;100455.53;5042362;28;19929;-86
2023/11/20 05:46:34;;;;;;;;;;;;;;;16.44;nan;100460.94;5042282;28;19917;-86
2023/11/20 05:49:01;;;;;;;;;;;;;;;16.45;nan;100464.44;5043743;28;19917;-86
2023/11/20 05:51:26;;;;;;;;;;;;;;;16.45;nan;100459.03;5043565;28;20445;-87
2023/11/20 05:53:51;;;;;;;;;;;;;;;16.47;nan;100463.03;5043377;28;20381;-86
2023/11/20 05:56:17;;;;;;;;;;;;;;;16.51;nan;100464.06;5041517;28;19932;-87
2023/11/20 05:58:42;;;;;;;;;;;;;;;16.53;nan;100474.59;5044649;28;19929;-85
2023/11/20 06:01:07;;;;;;;;;;;;;;;16.55;nan;100475.91;5041436;28;19947;-85
2023/11/20 06:03:33;;;;;;;;;;;;;;;16.58;nan;100474.50;5038585;28;19932;-86
2023/11/20 06:05:58;;;;;;;;;;;;;;;16.60;nan;100473.13;5040198;28;19929;-86
2023/11/20 06:08:23;;;;;;;;;;;;;;;16.62;nan;100470.91;5041296;28;20332;-86
2023/11/20 06:10:49;;;;;;;;;;;;;;;16.64;nan;100476.03;5023679;28;20469;-86
2023/11/20 06:13:14;;;;;;;;;;;;;;;16.67;nan;100480.06;5036928;28;19917;-86
2023/11/20 06:15:39;;;;;;;;;;;;;;;16.69;nan;100478.69;5045097;28;20281;-86
2023/11/20 06:18:04;;;;;;;;;;;;;;;16.71;nan;100481.91;5038609;28;20022;-86
2023/11/20 06:20:31;;;;;;;;;;;;;;;16.73;nan;100484.31;5043605;28;19921;-87
2023/11/20 06:22:56;;;;;;;;;;;;;;;16.75;nan;100482.94;5043592;28;20028;-86
2023/11/20 06:25:21;;;;;;;;;;;;;;;16.74;nan;100486.72;5043008;28;20007;-86
2023/11/20 06:27:47;;;;;;;;;;;;;;;16.70;nan;100488.44;5039841;28;19917;-86
2023/11/20 06:30:12;;;;;;;;;;;;;;;16.67;nan;100490.91;5042543;28;19928;-85
2023/11/20 06:32:37;;;;;;;;;;;;;;;16.67;nan;100491.69;5040571;28;19917;-86
2023/11/20 06:35:03;;;;;;;;;;;;;;;16.67;nan;100494.41;5037803;28;20405;-86
2023/11/20 06:37:28;;;;;;;;;;;;;;;16.67;nan;100497.09;5040628;28;19921;-86
2023/11/20 06:39:53;;;;;;;;;;;;;;;16.67;nan;100499.81;5040328;28;20451;-86
2023/11/20 06:42:19;;;;;;;;;;;;;;;16.67;nan;100504.41;5039805;28;20360;-86
2023/11/20 06:44:44;;;;;;;;;;;;;;;16.67;nan;100507.13;5044330;28;19927;-86
2023/11/20 06:47:10;;;;;;;;;;;;;;;16.65;nan;100507.38;5041725;28;20012;-86
2023/11/20 06:49:36;;;;;;;;;;;;;;;16.67;nan;100509.81;5041346;28;19924;-86
2023/11/20 06:52:01;;;;;;;;;;;;;;;16.68;nan;100509.53;5040030;28;19959;-86
2023/11/20 06:54:26;;;;;;;;;;;;;;;16.72;nan;100518.69;5040678;28;20937;-86
2023/11/20 06:56:53;;;;;;;;;;;;;;;16.72;nan;100520.59;5025689;28;19917;-86
2023/11/20 06:59:18;;;;;;;;;;;;;;;16.72;nan;100516.00;5041565;28;19917;-87
2023/11/20 07:01:45;;;;;;;;;;;;;;;16.74;nan;100515.69;5041356;28;19917;-86
2023/11/20 07:04:10;;;;;;;;;;;;;;;16.76;nan;100516.19;5041734;28;19924;-86
2023/11/20 07:06:37;;;;;;;;;;;;;;;16.80;nan;100522.63;5040272;28;20011;-86
2023/11/20 07:09:11;;;;;;;;;;;;;;;16.81;nan;100519.63;5038290;28;19917;-86
2023/11/20 07:11:36;;;;;;;;;;;;;;;16.83;nan;100527.44;5044427;28;19917;-86
2023/11/20 07:14:02;;;;;;;;;;;;;;;16.84;nan;100518.22;5042923;28;19972;-86
2023/11/20 07:16:28;;;;;;;;;;;;;;;16.85;nan;100525.22;5040861;28;19921;-86
2023/11/20 07:18:53;;;;;;;;;;;;;;;16.88;nan;100519.25;5040283;28;20016;-86
2023/11/20 07:21:19;;;;;;;;;;;;;;;16.87;nan;100520.31;5035887;28;20027;-85
2023/11/20 07:23:44;;;;;;;;;;;;;;;16.87;nan;100531.16;5038066;28;19974;-87
2023/11/20 07:26:14;;;;;;;;;;;;;;;16.89;nan;100526.28;5039551;28;19979;-86
2023/11/20 07:28:41;;;;;;;;;;;;;;;16.92;nan;100521.06;5045318;28;19927;-85
2023/11/20 07:31:08;;;;;;;;;;;;;;;16.96;nan;100521.28;5037886;28;19917;-86
2023/11/20 07:33:33;;;;;;;;;;;;;;;17.00;nan;100530.41;5042811;28;19924;-86
2023/11/20 07:35:58;;;;;;;;;;;;;;;17.04;nan;100534.13;5040667;28;20756;-86
2023/11/20 07:38:24;;;;;;;;;;;;;;;17.06;nan;100523.81;5042166;28;19921;-86
2023/11/20 07:40:50;;;;;;;;;;;;;;;17.09;nan;100525.13;5041125;28;19921;-86
2023/11/20 07:43:15;;;;;;;;;;;;;;;17.12;nan;100527.25;5038313;28;19963;-86
2023/11/20 07:45:41;;;;;;;;;;;;;;;17.14;nan;100523.13;5040879;28;19956;-87
2023/11/20 07:48:07;;;;;;;;;;;;;;;17.15;nan;100529.34;5039935;28;19939;-87
2023/11/20 07:50:33;;;;;;;;;;;;;;;17.15;nan;100527.44;5040502;28;20653;-87
2023/11/20 07:52:59;;;;;;;;;;;;;;;17.16;nan;100530.94;5038209;28;20768;-86
2023/11/20 07:55:25;;;;;;;;;;;;;;;17.18;nan;100534.16;5039447;28;20405;-86
2023/11/20 07:57:51;;;;;;;;;;;;;;;17.18;nan;100532.25;5044242;28;19939;-86
2023/11/20 08:00:16;;;;;;;;;;;;;;;17.20;nan;100532.75;5038265;28;20405;-85
2023/11/20 08:02:42;;;;;;;;;;;;;;;17.21;nan;100537.06;5041029;28;19917;-87
2023/11/20 08:05:08;;;;;;;;;;;;;;;17.22;nan;100533.28;5037728;28;19928;-86
2023/11/20 08:07:34;;;;;;;;;;;;;;;17.25;nan;100539.22;5040203;28;19917;-86
2023/11/20 08:09:59;;;;;;;;;;;;;;;17.25;nan;100541.91;5039388;28;20447;-87
2023/11/20 08:12:24;;;;;;;;;;;;;;;17.26;nan;100535.41;5040888;28;20030;-86
2023/11/20 08:14:50;;;;;;;;;;;;;;;17.28;nan;100541.31;5044614;28;20380;-86
2023/11/20 08:17:15;;;;;;;;;;;;;;;17.31;nan;100546.13;5037316;28;19924;-86
2023/11/20 08:19:40;;;;;;;;;;;;;;;17.29;nan;100548.34;5040554;28;19923;-86
2023/11/20 08:22:06;;;;;;;;;;;;;;;17.29;nan;100548.34;5036898;28;19924;-86
2023/11/20 08:24:32;;;;;;;;;;;;;;;17.28;nan;100550.25;5039780;28;19925;-86
2023/11/20 08:26:58;;;;;;;;;;;;;;;17.29;nan;100542.94;5040793;28;20274;-86
2023/11/20 08:29:23;;;;;;;;;;;;;;;17.32;nan;100547.75;5042074;28;20214;-86
2023/11/20 08:31:49;;;;;;;;;;;;;;;17.35;nan;100541.72;5040451;28;19921;-86
2023/11/20 08:34:14;;;;;;;;;;;;;;;17.40;nan;100549.75;5036097;28;19921;-87
2023/11/20 08:36:42;;;;;;;;;;;;;;;17.44;nan;100551.59;5039085;28;19924;-86
2023/11/20 08:39:11;;;;;;;;;;;;;;;17.50;nan;100549.59;5042779;28;19921;-87
2023/11/20 08:41:39;;;;;;;;;;;;;;;17.58;nan;100548.06;5039226;28;19917;-85
2023/11/20 08:44:05;;;;;;;;;;;;;;;17.66;nan;100550.91;5022795;28;20400;-86
2023/11/20 08:46:31;;;;;;;;;;;;;;;17.73;nan;100556.75;5039225;28;19917;-85
2023/11/20 08:48:56;;;;;;;;;;;;;;;17.79;nan;100552.06;5037497;28;19952;-86
2023/11/20 08:51:21;;;;;;;;;;;;;;;17.82;nan;100548.75;5039112;28;19917;-86
2023/11/20 08:53:47;;;;;;;;;;;;;;;17.88;nan;100552.94;5037053;28;20570;-86
2023/11/20 08:56:12;;;;;;;;;;;;;;;17.90;nan;100556.16;5043480;28;19917;-86
2023/11/20 08:58:38;;;;;;;;;;;;;;;17.93;nan;100560.97;5039416;28;20405;-86
2023/11/20 09:01:03;;;;;;;;;;;;;;;17.98;nan;100557.38;5039529;28;19917;-86
2023/11/20 09:03:28;;;;;;;;;;;;;;;18.01;nan;100554.88;5043579;28;19917;-86
2023/11/20 09:05:54;;;;;;;;;;;;;;;18.06;nan;100560.16;5039944;28;19936;-86
2023/11/20 09:08:19;;;;;;;;;;;;;;;18.09;nan;100562.28;5042911;28;19921;-86
2023/11/20 09:10:44;;;;;;;;;;;;;;;18.13;nan;100562.47;5041929;28;19976;-87
2023/11/20 09:13:10;;;;;;;;;;;;;;;18.16;nan;100569.22;5041619;28;20035;-86
2023/11/20 09:15:36;;;;;;;;;;;;;;;18.17;nan;100563.50;5043824;28;20269;-86
2023/11/20 09:18:01;;;;;;;;;;;;;;;18.21;nan;100569.91;5043185;28;19928;-86
2023/11/20 09:20:26;;;;;;;;;;;;;;;18.22;nan;100566.09;5042726;28;19917;-86
2023/11/20 09:22:52;;;;;;;;;;;;;;;18.24;nan;100566.59;5044066;28;19923;-86
2023/11/20 09:25:17;;;;;;;;;;;;;;;18.26;nan;100575.22;5042222;28;20027;-86
2023/11/20 09:27:42;;;;;;;;;;;;;;;18.28;nan;100567.56;5043253;28;19916;-86
2023/11/20 09:30:10;;;;;;;;;;;;;;;18.29;nan;100562.94;5044989;28;19921;-86
2023/11/20 09:32:35;;;;;;;;;;;;;;;18.31;nan;100564.28;5043324;28;19978;-87
2023/11/20 09:35:00;;;;;;;;;;;;;;;18.33;nan;100558.56;5039419;28;19916;-86
2023/11/20 09:37:27;;;;;;;;;;;;;;;18.34;nan;100560.97;5045034;28;20427;-86
2023/11/20 09:39:53;;;;;;;;;;;;;;;18.35;nan;100562.56;5044900;28;20111;-86
2023/11/20 09:42:22;;;;;;;;;;;;;;;18.36;nan;100552.50;5025845;28;19921;-86
2023/11/20 09:44:48;;;;;;;;;;;;;;;18.36;nan;100563.34;5039172;28;19943;-86
2023/11/20 09:47:14;;;;;;;;;;;;;;;18.37;nan;100560.34;5042212;28;19940;-87
2023/11/20 09:49:40;;;;;;;;;;;;;;;18.40;nan;100558.94;5041795;28;19920;-86
2023/11/20 09:52:06;;;;;;;;;;;;;;;18.38;nan;100561.94;5043444;28;19927;-87
2023/11/20 09:54:34;;;;;;;;;;;;;;;18.40;nan;100559.72;5034465;28;19912;-86
2023/11/20 09:56:59;;;;;;;;;;;;;;;18.41;nan;100555.09;5039670;28;20526;-86
2023/11/20 09:59:26;;;;;;;;;;;;;;;18.42;nan;100552.09;5043746;28;19920;-86
2023/11/20 10:01:51;;;;;;;;;;;;;;;18.42;nan;100549.38;5040951;28;20446;-86
2023/11/20 10:04:17;;;;;;;;;;;;;;;18.46;nan;100552.28;5042560;28;20400;-87
2023/11/20 10:06:44;;;;;;;;;;;;;;;18.51;nan;100551.38;5039197;28;20404;-86
2023/11/20 10:09:11;;;;;;;;;;;;;;;18.54;nan;100550.75;5041142;28;19925;-86
2023/11/20 10:11:38;;;;;;;;;;;;;;;18.58;nan;100549.03;5043557;28;19923;-86
2023/11/20 10:14:03;;;;;;;;;;;;;;;18.59;nan;100556.06;5039112;28;19917;-87
2023/11/20 10:16:32;;;;;;;;;;;;;;;18.60;nan;100557.66;5045098;28;19940;-86
2023/11/20 10:18:57;;;;;;;;;;;;;;;18.63;nan;100557.09;5040529;28;19917;-86
2023/11/20 10:21:25;;;;;;;;;;;;;;;18.64;nan;100547.81;5042720;28;19944;-87
2023/11/20 10:23:52;;;;;;;;;;;;;;;18.65;nan;100554.84;5040461;28;19928;-86
2023/11/20 10:26:17;;;;;;;;;;;;;;;18.64;nan;100550.53;5042626;28;19917;-86
2023/11/20 10:28:42;;;;;;;;;;;;;;;18.63;nan;100548.94;5041911;28;19928;-87
2023/11/20 10:31:08;;;;;;;;;;;;;;;18.62;nan;100550.03;5041236;28;19921;-87
2023/11/20 10:33:34;;;;;;;;;;;;;;;18.63;nan;100551.66;5042739;28;19916;-86
2023/11/20 10:36:10;;;;;;;;;;;;;;;18.60;nan;100549.53;5041015;28;19928;-86
2023/11/20 10:38:36;;;;;;;;;;;;;;;18.58;nan;100554.47;5040051;28;19939;-86
2023/11/20 10:41:01;;;;;;;;;;;;;;;18.58;nan;100547.13;5039672;28;20388;-86
2023/11/20 10:43:27;;;;;;;;;;;;;;;18.61;nan;100548.41;5041757;28;19923;-87
2023/11/20 10:45:52;;;;;;;;;;;;;;;18.62;nan;100544.59;5038655;28;19921;-86
2023/11/20 10:48:17;;;;;;;;;;;;;;;18.64;nan;100542.41;5043998;28;20344;-87
2023/11/20 10:50:43;;;;;;;;;;;;;;;18.62;nan;100541.88;5039977;28;19920;-86
2023/11/20 10:53:10;;;;;;;;;;;;;;;18.60;nan;100538.69;5040637;28;19925;-87
2023/11/20 10:55:42;;;;;;;;;;;;;;;18.58;nan;100538.97;5034889;28;19917;-86
2023/11/20 10:58:11;;;;;;;;;;;;;;;18.54;nan;100538.00;5038677;28;19917;-86
2023/11/20 11:00:39;;;;;;;;;;;;;;;18.47;nan;100542.22;5038669;28;20361;-86
2023/11/20 11:03:06;;;;;;;;;;;;;;;18.41;nan;100538.81;5041090;28;19921;-86
2023/11/20 11:05:32;;;;;;;;;;;;;;;18.38;nan;100537.53;5041267;28;19929;-85
2023/11/20 11:07:58;;;;;;;;;;;;;;;18.37;nan;100537.84;5039300;28;19960;-86
2023/11/20 11:10:23;;;;;;;;;;;;;;;18.36;nan;100536.25;5041953;28;20012;-86
2023/11/20 11:12:49;;;;;;;;;;;;;;;18.36;nan;100539.75;5039001;28;20368;-85
2023/11/20 11:15:14;;;;;;;;;;;;;;;18.35;nan;100540.06;5042182;28;19924;-86
2023/11/20 11:18:06;;;;;;;;;;;;;;;18.33;nan;100548.50;5044186;28;19925;-86
2023/11/20 11:20:35;;;;;;;;;;;;;;;18.27;nan;100549.69;5035734;28;19925;-85
2023/11/20 11:23:05;;;;;;;;;;;;;;;18.25;nan;100541.06;5042294;28;19928;-86
2023/11/20 11:25:36;;;;;;;;;;;;;;;18.25;nan;100546.50;5043198;28;19987;-87
2023/11/20 11:28:03;;;;;;;;;;;;;;;18.26;nan;100539.97;5041977;28;19921;-86
2023/11/20 11:30:34;;;;;;;;;;;;;;;18.28;nan;100539.66;5028194;28;20531;-86
2023/11/20 11:33:17;;;;;;;;;;;;;;;18.31;nan;100545.28;5041977;28;19956;-86
2023/11/20 11:35:53;;;;;;;;;;;;;;;18.34;nan;100544.69;5040345;28;20399;-86
2023/11/20 11:38:38;;;;;;;;;;;;;;;18.36;nan;100547.88;5044866;28;19928;-86
2023/11/20 11:41:10;;;;;;;;;;;;;;;18.39;nan;100541.84;5042093;28;19921;-86
2023/11/20 11:43:40;;;;;;;;;;;;;;;18.41;nan;100538.81;5045924;28;20332;-86
2023/11/20 11:46:07;;;;;;;;;;;;;;;18.45;nan;100536.31;5043346;28;19955;-86
2023/11/20 11:48:34;;;;;;;;;;;;;;;18.47;nan;100534.88;5044837;28;19917;-86
2023/11/20 11:51:01;;;;;;;;;;;;;;;18.52;nan;100531.28;5043806;28;20435;-86
2023/11/20 11:53:26;;;;;;;;;;;;;;;18.54;nan;100527.16;5044611;28;19921;-86
2023/11/20 11:55:56;;;;;;;;;;;;;;;18.60;nan;100534.06;5044164;28;19920;-85
2023/11/20 11:58:22;;;;;;;;;;;;;;;18.63;nan;100529.94;5043573;28;19928;-85
2023/11/20 12:01:06;;;;;;;;;;;;;;;18.66;nan;100534.75;5027668;28;19920;-86
2023/11/20 12:03:35;;;;;;;;;;;;;;;18.67;nan;100529.06;5042193;28;19916;-86
2023/11/20 12:06:00;;;;;;;;;;;;;;;18.71;nan;100532.75;5042469;28;19916;-86
2023/11/20 12:08:33;;;;;;;;;;;;;;;18.74;nan;100535.94;5044356;28;20369;-86
2023/11/20 12:10:59;;;;;;;;;;;;;;;18.76;nan;100523.66;5042637;28;19912;-86
2023/11/20 12:13:26;;;;;;;;;;;;;;;18.78;nan;100526.88;5034212;28;19951;-86
2023/11/20 12:16:03;;;;;;;;;;;;;;;18.80;nan;100529.28;5041347;28;20355;-85
2023/11/20 12:18:36;;;;;;;;;;;;;;;18.79;nan;100528.47;5041539;28;19971;-86
2023/11/20 12:21:04;;;;;;;;;;;;;;;18.77;nan;100528.00;5043136;28;19916;-86
2023/11/20 12:23:34;;;;;;;;;;;;;;;18.75;nan;100522.06;5044455;28;19944;-85
2023/11/20 12:26:06;;;;;;;;;;;;;;;18.71;nan;100532.75;5042700;28;20047;-86
2023/11/20 12:28:33;;;;;;;;;;;;;;;18.65;nan;100527.72;5042621;28;20007;-86
2023/11/20 12:31:05;;;;;;;;;;;;;;;18.60;nan;100522.41;5044271;28;19924;-86
2023/11/20 12:33:35;;;;;;;;;;;;;;;18.56;nan;100519.50;5045715;28;20385;-86
2023/11/20 12:36:01;;;;;;;;;;;;;;;18.58;nan;100516.47;5046624;28;20039;-86
2023/11/20 12:38:31;;;;;;;;;;;;;;;18.60;nan;100519.69;5045651;28;20007;-87
2023/11/20 12:40:59;;;;;;;;;;;;;;;18.60;nan;100514.25;5046475;28;19924;-87
2023/11/20 12:43:25;;;;;;;;;;;;;;;18.60;nan;100511.53;5048592;28;19971;-86
2023/11/20 12:45:53;;;;;;;;;;;;;;;18.59;nan;100513.44;5047679;28;19928;-86
2023/11/20 12:48:19;;;;;;;;;;;;;;;18.56;nan;100511.34;5048354;28;20409;-85
2023/11/20 12:50:45;;;;;;;;;;;;;;;18.56;nan;100521.41;5048702;28;19916;-86
2023/11/20 12:53:11;;;;;;;;;;;;;;;18.55;nan;100515.19;5047039;28;20392;-86